Time;durP1;ratioP1;P1;durP2;ratioP2;P2;SDS_P1;SDS_P2;PMS_P1;PMS_P2;Temp;Humidity;BMP_temperature;BMP_pressure;BME280_temperature;BME280_humidity;BME280_pressure;Samples;Min_cycle;Max_cycle;Signal;HPM_P1;HPM_P2
2021/06/12 00:00:48;;;;;;;4.5;4.1;;;;;;;20.6;54.4;101670;;;;
2021/06/12 00:02:48;;;;;;;4.5;4.1;;;;;;;20.7;53.9;101660;;;;
2021/06/12 00:06:48;;;;;;;4.5;4.1;;;;;;;20.6;54.6;101650;;;;
2021/06/12 00:12:48;;;;;;;4.5;4.1;;;;;;;20.4;55.6;101660;;;;
2021/06/12 00:14:48;;;;;;;5.7;5.1;;;;;;;20.6;54.1;101660;;;;
2021/06/12 00:18:48;;;;;;;5.7;5.1;;;;;;;20.5;54.4;101660;;;;
2021/06/12 00:20:48;;;;;;;5.7;5.1;;;;;;;20.6;54.5;101660;;;;
2021/06/12 00:24:48;;;;;;;5.7;5.1;;;;;;;20.3;55.3;101660;;;;
2021/06/12 00:32:48;;;;;;;5.7;5.1;;;;;;;20.2;54.8;101660;;;;
2021/06/12 00:34:48;;;;;;;7.1;5.0;;;;;;;20.3;55.3;101650;;;;
2021/06/12 00:38:48;;;;;;;7.1;5.0;;;;;;;20.2;55.0;101660;;;;
2021/06/12 00:40:48;;;;;;;7.1;5.0;;;;;;;20.1;55.8;101660;;;;
2021/06/12 00:44:48;;;;;;;7.1;5.0;;;;;;;20.0;56.1;101650;;;;
2021/06/12 00:46:48;;;;;;;7.1;5.0;;;;;;;20.1;54.7;101650;;;;
2021/06/12 01:00:48;;;;;;;5.0;4.5;;;;;;;19.9;55.4;101630;;;;
2021/06/12 01:02:48;;;;;;;5.0;4.5;;;;;;;20.0;55.0;101630;;;;
2021/06/12 01:04:48;;;;;;;5.0;4.5;;;;;;;19.9;55.7;101630;;;;
2021/06/12 01:06:51;;;;;;;5.0;4.5;;;;;;;19.8;56.4;101640;;;;
2021/06/12 01:08:48;;;;;;;5.0;4.5;;;;;;;19.7;55.9;101640;;;;
2021/06/12 01:12:48;;;;;;;5.0;4.5;;;;;;;19.8;56.3;101630;;;;
2021/06/12 01:16:48;;;;;;;4.9;3.7;;;;;;;19.7;57.7;101630;;;;
2021/06/12 01:20:48;;;;;;;4.9;3.7;;;;;;;19.6;56.6;101630;;;;
2021/06/12 01:22:48;;;;;;;4.9;3.7;;;;;;;19.7;55.8;101620;;;;
2021/06/12 01:30:48;;;;;;;4.9;3.7;;;;;;;19.6;56.3;101640;;;;
2021/06/12 01:32:48;;;;;;;4.9;3.7;;;;;;;19.7;55.2;101630;;;;
2021/06/12 01:42:48;;;;;;;4.8;4.3;;;;;;;19.6;54.5;101630;;;;
2021/06/12 01:46:48;;;;;;;4.8;4.3;;;;;;;19.5;55.6;101630;;;;
2021/06/12 01:52:48;;;;;;;4.8;4.3;;;;;;;19.4;57.0;101650;;;;
2021/06/12 01:54:48;;;;;;;5.0;4.5;;;;;;;19.5;55.4;101640;;;;
2021/06/12 01:56:48;;;;;;;5.0;4.5;;;;;;;19.4;57.2;101640;;;;
2021/06/12 01:58:48;;;;;;;5.0;4.5;;;;;;;19.3;57.1;101640;;;;
2021/06/12 02:00:48;;;;;;;5.0;4.5;;;;;;;19.4;56.4;101640;;;;
2021/06/12 02:02:48;;;;;;;5.0;4.5;;;;;;;19.5;56.3;101640;;;;
2021/06/12 02:08:48;;;;;;;5.0;4.5;;;;;;;19.3;58.1;101640;;;;
2021/06/12 02:10:48;;;;;;;5.0;4.5;;;;;;;19.4;55.2;101640;;;;
2021/06/12 02:16:48;;;;;;;5.8;5.0;;;;;;;19.3;57.4;101640;;;;
2021/06/12 02:18:48;;;;;;;5.8;5.0;;;;;;;19.2;56.3;101630;;;;
2021/06/12 02:24:48;;;;;;;5.8;5.0;;;;;;;19.1;56.3;101640;;;;
2021/06/12 02:26:48;;;;;;;5.8;5.0;;;;;;;19.0;59.0;101630;;;;
2021/06/12 02:28:48;;;;;;;5.8;5.0;;;;;;;19.1;58.0;101640;;;;
2021/06/12 02:32:48;;;;;;;5.8;5.0;;;;;;;18.9;58.1;101640;;;;
2021/06/12 02:34:48;;;;;;;7.0;5.1;;;;;;;19.2;57.3;101640;;;;
2021/06/12 02:38:48;;;;;;;7.0;5.1;;;;;;;19.0;59.5;101650;;;;
2021/06/12 02:40:48;;;;;;;7.0;5.1;;;;;;;19.1;58.1;101650;;;;
2021/06/12 02:50:48;;;;;;;7.0;5.1;;;;;;;19.2;58.5;101640;;;;
2021/06/12 02:52:48;;;;;;;7.0;5.1;;;;;;;19.1;58.1;101640;;;;
2021/06/12 02:56:48;;;;;;;7.0;5.0;;;;;;;19.2;57.6;101640;;;;
2021/06/12 03:00:48;;;;;;;7.0;5.0;;;;;;;19.1;58.0;101630;;;;
2021/06/12 03:04:48;;;;;;;7.0;5.0;;;;;;;19.2;57.2;101640;;;;
2021/06/12 03:06:48;;;;;;;7.0;5.0;;;;;;;19.1;57.4;101630;;;;
2021/06/12 03:18:48;;;;;;;8.1;5.8;;;;;;;19.2;58.7;101640;;;;
2021/06/12 03:20:48;;;;;;;8.1;5.8;;;;;;;19.1;59.1;101640;;;;
2021/06/12 03:26:48;;;;;;;8.1;5.8;;;;;;;19.0;58.7;101640;;;;
2021/06/12 03:28:48;;;;;;;8.1;5.8;;;;;;;19.1;59.1;101640;;;;
2021/06/12 03:30:48;;;;;;;8.1;5.8;;;;;;;19.0;58.9;101640;;;;
2021/06/12 03:32:48;;;;;;;8.1;5.8;;;;;;;19.1;57.9;101640;;;;
2021/06/12 03:34:48;;;;;;;6.4;5.6;;;;;;;19.0;59.4;101630;;;;
2021/06/12 03:38:48;;;;;;;6.4;5.6;;;;;;;19.1;58.4;101640;;;;
2021/06/12 03:40:48;;;;;;;6.4;5.6;;;;;;;19.0;58.3;101630;;;;
2021/06/12 03:42:48;;;;;;;6.4;5.6;;;;;;;18.9;59.4;101630;;;;
2021/06/12 03:44:48;;;;;;;6.4;5.6;;;;;;;19.0;58.8;101630;;;;
2021/06/12 03:46:48;;;;;;;6.4;5.6;;;;;;;18.9;59.6;101630;;;;
2021/06/12 03:48:48;;;;;;;6.4;5.6;;;;;;;19.0;58.0;101630;;;;
2021/06/12 03:50:48;;;;;;;6.4;5.6;;;;;;;18.9;58.7;101630;;;;
2021/06/12 03:52:48;;;;;;;6.4;5.6;;;;;;;19.0;59.0;101630;;;;
2021/06/12 03:58:48;;;;;;;7.3;6.1;;;;;;;18.9;60.1;101640;;;;
2021/06/12 04:00:48;;;;;;;7.3;6.1;;;;;;;19.0;60.4;101640;;;;
2021/06/12 04:08:48;;;;;;;7.3;6.1;;;;;;;18.9;59.7;101650;;;;
2021/06/12 04:10:48;;;;;;;7.3;6.1;;;;;;;19.0;59.3;101650;;;;
2021/06/12 04:12:48;;;;;;;7.3;6.1;;;;;;;19.1;57.8;101660;;;;
2021/06/12 04:14:48;;;;;;;8.3;6.5;;;;;;;18.9;60.9;101670;;;;
2021/06/12 04:18:48;;;;;;;8.3;6.5;;;;;;;18.8;59.4;101660;;;;
2021/06/12 04:20:48;;;;;;;8.3;6.5;;;;;;;19.0;59.2;101660;;;;
2021/06/12 04:24:48;;;;;;;8.3;6.5;;;;;;;18.9;60.1;101660;;;;
2021/06/12 04:26:48;;;;;;;8.3;6.5;;;;;;;18.8;61.8;101660;;;;
2021/06/12 04:28:48;;;;;;;8.3;6.5;;;;;;;18.9;60.7;101660;;;;
2021/06/12 04:30:50;;;;;;;8.3;6.5;;;;;;;19.0;58.9;101660;;;;
2021/06/12 04:32:48;;;;;;;8.3;6.5;;;;;;;19.1;58.9;101660;;;;
2021/06/12 04:34:48;;;;;;;7.8;7.1;;;;;;;19.0;60.3;101660;;;;
2021/06/12 04:36:48;;;;;;;7.8;7.1;;;;;;;18.8;61.1;101650;;;;
2021/06/12 04:44:48;;;;;;;7.8;7.1;;;;;;;18.9;61.5;101650;;;;
2021/06/12 04:46:48;;;;;;;7.8;7.1;;;;;;;18.8;61.4;101650;;;;
2021/06/12 04:50:48;;;;;;;7.8;7.1;;;;;;;18.9;60.0;101650;;;;
2021/06/12 04:56:48;;;;;;;10.5;8.9;;;;;;;19.0;59.1;101640;;;;
2021/06/12 05:02:48;;;;;;;10.5;8.9;;;;;;;18.9;61.4;101640;;;;
2021/06/12 05:04:48;;;;;;;10.5;8.9;;;;;;;19.0;60.6;101650;;;;
2021/06/12 05:06:48;;;;;;;10.5;8.9;;;;;;;19.1;61.8;101650;;;;
2021/06/12 05:08:48;;;;;;;10.5;8.9;;;;;;;18.9;61.5;101650;;;;
2021/06/12 05:10:48;;;;;;;10.5;8.9;;;;;;;19.0;60.8;101650;;;;
2021/06/12 05:12:48;;;;;;;10.5;8.9;;;;;;;18.9;61.6;101660;;;;
2021/06/12 05:14:50;;;;;;;11.2;9.8;;;;;;;19.0;60.8;101660;;;;
2021/06/12 05:16:48;;;;;;;11.2;9.8;;;;;;;19.2;61.0;101660;;;;
2021/06/12 05:18:48;;;;;;;11.2;9.8;;;;;;;19.0;62.0;101660;;;;
2021/06/12 05:20:48;;;;;;;11.2;9.8;;;;;;;18.9;61.9;101670;;;;
2021/06/12 05:24:48;;;;;;;11.2;9.8;;;;;;;18.8;62.4;101670;;;;
2021/06/12 05:30:48;;;;;;;11.2;9.8;;;;;;;18.7;62.9;101680;;;;
2021/06/12 05:32:48;;;;;;;12.6;11.2;;;;;;;18.9;61.4;101680;;;;
2021/06/12 05:36:48;;;;;;;12.6;11.2;;;;;;;19.0;61.7;101690;;;;
2021/06/12 05:40:48;;;;;;;12.6;11.2;;;;;;;18.9;61.9;101690;;;;
2021/06/12 05:42:48;;;;;;;12.6;11.2;;;;;;;19.0;61.7;101690;;;;
2021/06/12 05:44:48;;;;;;;12.6;11.2;;;;;;;18.9;62.8;101690;;;;
2021/06/12 05:46:50;;;;;;;12.6;11.2;;;;;;;19.0;61.6;101700;;;;
2021/06/12 05:54:48;;;;;;;15.3;13.7;;;;;;;19.1;61.8;101710;;;;
2021/06/12 06:08:48;;;;;;;15.3;13.7;;;;;;;19.0;62.2;101710;;;;
2021/06/12 06:12:48;;;;;;;16.9;15.2;;;;;;;19.1;62.4;101710;;;;
2021/06/12 06:14:48;;;;;;;16.9;15.2;;;;;;;19.2;60.9;101720;;;;
2021/06/12 06:16:48;;;;;;;16.9;15.2;;;;;;;19.1;62.7;101710;;;;
2021/06/12 06:18:48;;;;;;;16.9;15.2;;;;;;;19.2;61.4;101720;;;;
2021/06/12 06:20:48;;;;;;;16.9;15.2;;;;;;;19.3;61.1;101710;;;;
2021/06/12 06:22:48;;;;;;;16.9;15.2;;;;;;;19.1;61.9;101720;;;;
2021/06/12 06:24:49;;;;;;;16.9;15.2;;;;;;;19.2;61.9;101710;;;;
2021/06/12 06:26:48;;;;;;;16.9;15.2;;;;;;;19.1;62.4;101710;;;;
2021/06/12 06:28:48;;;;;;;16.9;15.2;;;;;;;19.2;62.0;101710;;;;
2021/06/12 06:34:48;;;;;;;20.9;18.9;;;;;;;19.3;61.5;101710;;;;
2021/06/12 06:38:48;;;;;;;20.9;18.9;;;;;;;19.5;61.6;101710;;;;
2021/06/12 06:40:48;;;;;;;20.9;18.9;;;;;;;19.6;61.4;101710;;;;
2021/06/12 06:42:48;;;;;;;20.9;18.9;;;;;;;19.7;61.4;101720;;;;
2021/06/12 06:44:48;;;;;;;20.9;18.9;;;;;;;19.5;60.7;101720;;;;
2021/06/12 06:46:48;;;;;;;20.9;18.9;;;;;;;19.6;61.7;101720;;;;
2021/06/12 06:48:48;;;;;;;20.9;18.9;;;;;;;19.7;60.6;101710;;;;
2021/06/12 06:50:48;;;;;;;20.9;18.9;;;;;;;19.9;60.4;101710;;;;
2021/06/12 06:52:49;;;;;;;22.4;20.1;;;;;;;20.0;60.2;101710;;;;
2021/06/12 06:56:48;;;;;;;22.4;20.1;;;;;;;20.1;59.9;101720;;;;
2021/06/12 07:00:48;;;;;;;22.4;20.1;;;;;;;20.3;58.9;101730;;;;
2021/06/12 07:02:48;;;;;;;22.4;20.1;;;;;;;20.2;59.7;101730;;;;
2021/06/12 07:04:48;;;;;;;22.4;20.1;;;;;;;20.4;59.5;101730;;;;
2021/06/12 07:06:48;;;;;;;22.4;20.1;;;;;;;20.2;60.3;101740;;;;
2021/06/12 07:12:49;;;;;;;21.4;19.3;;;;;;;20.4;58.8;101740;;;;
2021/06/12 07:14:48;;;;;;;21.4;19.3;;;;;;;20.5;58.4;101730;;;;
2021/06/12 07:16:48;;;;;;;21.4;19.3;;;;;;;20.6;59.0;101740;;;;
2021/06/12 07:18:48;;;;;;;21.4;19.3;;;;;;;20.8;57.3;101730;;;;
2021/06/12 07:20:48;;;;;;;21.4;19.3;;;;;;;20.6;58.7;101730;;;;
2021/06/12 07:22:48;;;;;;;21.4;19.3;;;;;;;20.7;58.6;101730;;;;
2021/06/12 07:26:48;;;;;;;21.4;19.3;;;;;;;20.8;58.7;101730;;;;
2021/06/12 07:30:48;;;;;;;21.4;19.3;;;;;;;20.7;58.6;101720;;;;
2021/06/12 07:32:48;;;;;;;17.3;15.7;;;;;;;20.9;58.0;101730;;;;
2021/06/12 07:34:48;;;;;;;17.3;15.7;;;;;;;21.1;58.0;101730;;;;
2021/06/12 07:40:48;;;;;;;17.3;15.7;;;;;;;21.4;57.3;101730;;;;
2021/06/12 07:44:49;;;;;;;17.3;15.7;;;;;;;21.3;56.5;101740;;;;
2021/06/12 07:46:48;;;;;;;17.3;15.7;;;;;;;21.2;56.3;101740;;;;
2021/06/12 07:48:48;;;;;;;17.3;15.7;;;;;;;21.3;56.4;101750;;;;
2021/06/12 07:50:48;;;;;;;17.3;15.7;;;;;;;21.4;55.7;101750;;;;
2021/06/12 07:54:48;;;;;;;15.1;13.6;;;;;;;21.5;55.8;101750;;;;
2021/06/12 07:56:48;;;;;;;15.1;13.6;;;;;;;21.4;55.9;101760;;;;
2021/06/12 07:58:48;;;;;;;15.1;13.6;;;;;;;21.5;55.4;101760;;;;
2021/06/12 08:10:48;;;;;;;15.1;13.6;;;;;;;21.3;53.2;101750;;;;
2021/06/12 08:12:48;;;;;;;8.7;7.9;;;;;;;21.4;52.8;101760;;;;
2021/06/12 08:14:48;;;;;;;8.7;7.9;;;;;;;21.6;52.2;101760;;;;
2021/06/12 08:18:48;;;;;;;8.7;7.9;;;;;;;21.8;51.5;101760;;;;
2021/06/12 08:20:49;;;;;;;8.7;7.9;;;;;;;21.9;51.2;101760;;;;
2021/06/12 08:24:49;;;;;;;8.7;7.9;;;;;;;22.1;50.8;101750;;;;
2021/06/12 08:26:48;;;;;;;8.7;7.9;;;;;;;22.2;50.4;101760;;;;
2021/06/12 08:30:51;;;;;;;8.7;7.9;;;;;;;22.3;50.0;101770;;;;
2021/06/12 08:32:48;;;;;;;8.4;6.0;;;;;;;22.4;49.9;101780;;;;
2021/06/12 08:34:48;;;;;;;8.4;6.0;;;;;;;22.0;49.6;101780;;;;
2021/06/12 08:42:48;;;;;;;8.4;6.0;;;;;;;22.2;49.4;101790;;;;
2021/06/12 08:44:48;;;;;;;8.4;6.0;;;;;;;22.0;49.1;101790;;;;
2021/06/12 08:48:48;;;;;;;8.4;6.0;;;;;;;21.9;47.6;101800;;;;
2021/06/12 08:50:49;;;;;;;8.4;6.0;;;;;;;21.8;47.6;101790;;;;
2021/06/12 08:52:48;;;;;;;6.6;3.8;;;;;;;22.0;46.9;101800;;;;
2021/06/12 08:54:48;;;;;;;6.6;3.8;;;;;;;21.9;47.0;101800;;;;
2021/06/12 08:56:48;;;;;;;6.6;3.8;;;;;;;22.0;46.8;101800;;;;
2021/06/12 08:58:53;;;;;;;6.6;3.8;;;;;;;21.9;47.4;101800;;;;
2021/06/12 09:00:49;;;;;;;6.6;3.8;;;;;;;22.0;47.1;101800;;;;
2021/06/12 09:04:48;;;;;;;6.6;3.8;;;;;;;21.9;46.9;101810;;;;
2021/06/12 09:06:48;;;;;;;6.6;3.8;;;;;;;21.8;46.8;101820;;;;
2021/06/12 09:08:48;;;;;;;6.6;3.8;;;;;;;21.7;47.0;101820;;;;
2021/06/12 09:10:48;;;;;;;6.6;3.8;;;;;;;22.0;46.9;101810;;;;
2021/06/12 09:12:48;;;;;;;4.5;3.5;;;;;;;21.8;46.4;101810;;;;
2021/06/12 09:16:49;;;;;;;4.5;3.5;;;;;;;21.9;46.4;101810;;;;
2021/06/12 09:18:48;;;;;;;4.5;3.5;;;;;;;22.1;46.6;101810;;;;
2021/06/12 09:20:48;;;;;;;4.5;3.5;;;;;;;22.0;46.0;101810;;;;
2021/06/12 09:26:48;;;;;;;4.5;3.5;;;;;;;22.1;45.2;101810;;;;
2021/06/12 09:28:48;;;;;;;4.5;3.5;;;;;;;22.2;45.7;101810;;;;
2021/06/12 09:30:48;;;;;;;4.5;3.5;;;;;;;22.1;44.9;101810;;;;
2021/06/12 09:32:48;;;;;;;5.9;3.6;;;;;;;22.3;45.4;101810;;;;
2021/06/12 09:34:48;;;;;;;5.9;3.6;;;;;;;22.4;45.3;101810;;;;
2021/06/12 09:36:48;;;;;;;5.9;3.6;;;;;;;22.3;44.8;101810;;;;
2021/06/12 09:38:48;;;;;;;5.9;3.6;;;;;;;22.4;44.9;101810;;;;
2021/06/12 09:42:48;;;;;;;5.9;3.6;;;;;;;22.5;44.5;101820;;;;
2021/06/12 09:44:50;;;;;;;5.9;3.6;;;;;;;22.6;44.6;101820;;;;
2021/06/12 09:46:48;;;;;;;5.9;3.6;;;;;;;22.8;44.3;101830;;;;
2021/06/12 09:52:48;;;;;;;6.3;3.0;;;;;;;22.9;42.5;101830;;;;
2021/06/12 09:54:49;;;;;;;6.3;3.0;;;;;;;23.0;42.1;101840;;;;
2021/06/12 09:56:48;;;;;;;6.3;3.0;;;;;;;22.9;41.6;101840;;;;
2021/06/12 10:00:48;;;;;;;6.3;3.0;;;;;;;23.0;41.4;101840;;;;
2021/06/12 10:02:49;;;;;;;6.3;3.0;;;;;;;23.1;42.7;101830;;;;
2021/06/12 10:06:48;;;;;;;6.3;3.0;;;;;;;23.3;41.5;101840;;;;
2021/06/12 10:08:49;;;;;;;6.3;3.0;;;;;;;23.5;41.5;101830;;;;
2021/06/12 10:12:48;;;;;;;6.5;3.5;;;;;;;23.6;41.7;101830;;;;
2021/06/12 10:14:48;;;;;;;6.5;3.5;;;;;;;23.4;40.9;101840;;;;
2021/06/12 10:18:48;;;;;;;6.5;3.5;;;;;;;23.2;41.5;101850;;;;
2021/06/12 10:20:48;;;;;;;6.5;3.5;;;;;;;23.3;41.1;101840;;;;
2021/06/12 10:22:50;;;;;;;6.5;3.5;;;;;;;23.0;40.8;101850;;;;
2021/06/12 10:28:48;;;;;;;6.5;3.5;;;;;;;23.2;41.0;101850;;;;
2021/06/12 10:30:48;;;;;;;6.5;3.5;;;;;;;23.4;40.6;101850;;;;
2021/06/12 10:32:48;;;;;;;7.9;3.3;;;;;;;23.5;40.3;101860;;;;
2021/06/12 10:34:48;;;;;;;7.9;3.3;;;;;;;23.6;40.0;101860;;;;
2021/06/12 10:36:48;;;;;;;7.9;3.3;;;;;;;23.7;40.2;101860;;;;
2021/06/12 10:38:48;;;;;;;7.9;3.3;;;;;;;23.8;39.5;101860;;;;
2021/06/12 10:40:48;;;;;;;7.9;3.3;;;;;;;23.5;39.6;101850;;;;
2021/06/12 10:42:48;;;;;;;7.9;3.3;;;;;;;23.6;39.9;101860;;;;
2021/06/12 10:44:48;;;;;;;7.9;3.3;;;;;;;23.5;40.5;101850;;;;
2021/06/12 10:48:49;;;;;;;7.9;3.3;;;;;;;23.8;40.4;101860;;;;
2021/06/12 10:50:48;;;;;;;7.9;3.3;;;;;;;24.0;40.7;101860;;;;
2021/06/12 10:52:48;;;;;;;6.7;3.4;;;;;;;24.1;39.4;101860;;;;
2021/06/12 10:54:48;;;;;;;6.7;3.4;;;;;;;24.0;39.8;101860;;;;
2021/06/12 10:58:48;;;;;;;6.7;3.4;;;;;;;23.6;40.1;101870;;;;
2021/06/12 11:02:48;;;;;;;6.7;3.4;;;;;;;23.9;39.7;101870;;;;
2021/06/12 11:04:57;;;;;;;6.7;3.4;;;;;;;23.7;39.1;101870;;;;
2021/06/12 11:06:50;;;;;;;6.7;3.4;;;;;;;23.5;39.9;101870;;;;
2021/06/12 11:08:48;;;;;;;6.7;3.4;;;;;;;23.6;39.4;101870;;;;
2021/06/12 11:14:48;;;;;;;11.4;3.8;;;;;;;23.7;39.5;101870;;;;
2021/06/12 11:18:48;;;;;;;11.4;3.8;;;;;;;23.5;39.4;101860;;;;
2021/06/12 11:22:48;;;;;;;11.4;3.8;;;;;;;23.4;38.7;101870;;;;
2021/06/12 11:24:48;;;;;;;11.4;3.8;;;;;;;23.7;39.1;101870;;;;
2021/06/12 11:26:48;;;;;;;11.4;3.8;;;;;;;23.8;38.3;101870;;;;
2021/06/12 11:30:48;;;;;;;11.4;3.8;;;;;;;23.7;37.6;101880;;;;
2021/06/12 11:34:48;;;;;;;5.5;3.3;;;;;;;23.8;38.1;101870;;;;
2021/06/12 11:36:48;;;;;;;5.5;3.3;;;;;;;23.6;38.3;101870;;;;
2021/06/12 11:38:50;;;;;;;5.5;3.3;;;;;;;23.9;38.5;101870;;;;
2021/06/12 11:40:48;;;;;;;5.5;3.3;;;;;;;24.1;38.1;101870;;;;
2021/06/12 11:42:53;;;;;;;5.5;3.3;;;;;;;24.0;37.6;101870;;;;
2021/06/12 11:48:48;;;;;;;5.5;3.3;;;;;;;24.1;36.8;101880;;;;
2021/06/12 11:50:49;;;;;;;5.5;3.3;;;;;;;23.9;37.0;101880;;;;
2021/06/12 11:52:48;;;;;;;7.8;3.1;;;;;;;23.8;36.4;101880;;;;
2021/06/12 11:54:48;;;;;;;7.8;3.1;;;;;;;24.1;37.0;101880;;;;
2021/06/12 11:58:48;;;;;;;7.8;3.1;;;;;;;24.0;36.0;101880;;;;
2021/06/12 12:00:48;;;;;;;7.8;3.1;;;;;;;24.4;36.9;101880;;;;
2021/06/12 12:02:48;;;;;;;7.8;3.1;;;;;;;24.3;35.9;101880;;;;
2021/06/12 12:04:51;;;;;;;7.8;3.1;;;;;;;24.5;36.3;101880;;;;
2021/06/12 12:06:48;;;;;;;7.8;3.1;;;;;;;24.7;36.4;101880;;;;
2021/06/12 12:08:48;;;;;;;7.8;3.1;;;;;;;24.5;36.2;101880;;;;
2021/06/12 12:10:48;;;;;;;7.8;3.1;;;;;;;24.6;36.0;101890;;;;
2021/06/12 12:12:48;;;;;;;4.7;2.4;;;;;;;25.0;36.0;101890;;;;
2021/06/12 12:14:48;;;;;;;4.7;2.4;;;;;;;24.9;35.1;101890;;;;
2021/06/12 12:16:49;;;;;;;4.7;2.4;;;;;;;24.8;34.8;101880;;;;
2021/06/12 12:18:48;;;;;;;4.7;2.4;;;;;;;25.1;35.2;101890;;;;
2021/06/12 12:22:49;;;;;;;4.7;2.4;;;;;;;25.0;36.1;101880;;;;
2021/06/12 12:24:48;;;;;;;4.7;2.4;;;;;;;25.2;35.4;101880;;;;
2021/06/12 12:26:48;;;;;;;4.7;2.4;;;;;;;25.1;35.2;101890;;;;
2021/06/12 12:28:48;;;;;;;4.7;2.4;;;;;;;24.8;34.2;101890;;;;
2021/06/12 12:30:48;;;;;;;4.7;2.4;;;;;;;25.0;34.7;101900;;;;
2021/06/12 12:32:48;;;;;;;4.4;2.3;;;;;;;24.9;35.9;101890;;;;
2021/06/12 12:34:48;;;;;;;4.4;2.3;;;;;;;24.8;35.9;101890;;;;
2021/06/12 12:36:49;;;;;;;4.4;2.3;;;;;;;24.7;35.0;101890;;;;
2021/06/12 12:38:48;;;;;;;4.4;2.3;;;;;;;24.9;34.6;101900;;;;
2021/06/12 12:40:48;;;;;;;4.4;2.3;;;;;;;25.1;35.6;101900;;;;
2021/06/12 12:42:48;;;;;;;4.4;2.3;;;;;;;24.8;34.2;101900;;;;
2021/06/12 12:44:48;;;;;;;4.4;2.3;;;;;;;24.7;34.7;101900;;;;
2021/06/12 12:50:49;;;;;;;4.4;2.3;;;;;;;24.6;35.2;101910;;;;
2021/06/12 12:52:48;;;;;;;4.9;2.3;;;;;;;24.4;34.9;101910;;;;
2021/06/12 12:54:48;;;;;;;4.9;2.3;;;;;;;24.8;36.6;101910;;;;
2021/06/12 12:56:48;;;;;;;4.9;2.3;;;;;;;24.9;36.0;101910;;;;
2021/06/12 12:58:48;;;;;;;4.9;2.3;;;;;;;25.3;35.9;101910;;;;
2021/06/12 13:00:48;;;;;;;4.9;2.3;;;;;;;25.2;35.8;101910;;;;
2021/06/12 13:02:48;;;;;;;4.9;2.3;;;;;;;25.1;33.5;101900;;;;
2021/06/12 13:04:48;;;;;;;4.9;2.3;;;;;;;25.0;35.5;101900;;;;
2021/06/12 13:06:48;;;;;;;4.9;2.3;;;;;;;25.1;36.0;101910;;;;
2021/06/12 13:08:48;;;;;;;4.9;2.3;;;;;;;25.0;35.5;101920;;;;
2021/06/12 13:10:48;;;;;;;4.9;2.3;;;;;;;25.1;35.7;101910;;;;
2021/06/12 13:12:48;;;;;;;5.8;2.5;;;;;;;25.2;34.3;101910;;;;
2021/06/12 13:14:48;;;;;;;5.8;2.5;;;;;;;24.9;34.0;101920;;;;
2021/06/12 13:16:48;;;;;;;5.8;2.5;;;;;;;25.0;36.0;101920;;;;
2021/06/12 13:20:48;;;;;;;5.8;2.5;;;;;;;25.4;36.1;101920;;;;
2021/06/12 13:22:48;;;;;;;5.8;2.5;;;;;;;25.3;35.7;101920;;;;
2021/06/12 13:24:48;;;;;;;5.8;2.5;;;;;;;25.2;35.0;101930;;;;
2021/06/12 13:26:48;;;;;;;5.8;2.5;;;;;;;25.0;35.6;101930;;;;
2021/06/12 13:28:48;;;;;;;5.8;2.5;;;;;;;25.3;36.0;101930;;;;
2021/06/12 13:30:48;;;;;;;5.8;2.5;;;;;;;25.4;34.9;101930;;;;
2021/06/12 13:32:48;;;;;;;6.3;3.0;;;;;;;25.0;34.2;101930;;;;
2021/06/12 13:34:48;;;;;;;6.3;3.0;;;;;;;24.8;34.0;101930;;;;
2021/06/12 13:36:48;;;;;;;6.3;3.0;;;;;;;25.0;34.3;101930;;;;
2021/06/12 13:38:48;;;;;;;6.3;3.0;;;;;;;25.3;35.8;101930;;;;
2021/06/12 13:40:48;;;;;;;6.3;3.0;;;;;;;25.0;34.9;101930;;;;
2021/06/12 13:44:48;;;;;;;6.3;3.0;;;;;;;25.3;35.5;101940;;;;
2021/06/12 13:46:48;;;;;;;6.3;3.0;;;;;;;25.5;36.0;101940;;;;
2021/06/12 13:48:48;;;;;;;6.3;3.0;;;;;;;25.7;35.8;101930;;;;
2021/06/12 13:50:48;;;;;;;6.3;3.0;;;;;;;25.9;35.9;101930;;;;
2021/06/12 13:52:48;;;;;;;5.6;3.0;;;;;;;25.6;34.4;101930;;;;
2021/06/12 13:54:48;;;;;;;5.6;3.0;;;;;;;25.5;34.0;101950;;;;
2021/06/12 13:56:48;;;;;;;5.6;3.0;;;;;;;25.6;35.0;101940;;;;
2021/06/12 13:58:48;;;;;;;5.6;3.0;;;;;;;25.9;34.7;101940;;;;
2021/06/12 14:02:48;;;;;;;5.6;3.0;;;;;;;26.1;34.2;101940;;;;
2021/06/12 14:04:48;;;;;;;5.6;3.0;;;;;;;26.0;33.1;101940;;;;
2021/06/12 14:12:48;;;;;;;5.0;2.4;;;;;;;26.2;32.1;101950;;;;
2021/06/12 14:14:48;;;;;;;5.0;2.4;;;;;;;26.4;33.5;101960;;;;
2021/06/12 14:16:48;;;;;;;5.0;2.4;;;;;;;26.5;33.4;101970;;;;
2021/06/12 14:18:48;;;;;;;5.0;2.4;;;;;;;26.3;31.4;101970;;;;
2021/06/12 14:20:49;;;;;;;5.0;2.4;;;;;;;26.4;32.1;101970;;;;
2021/06/12 14:22:48;;;;;;;5.0;2.4;;;;;;;26.1;31.8;101960;;;;
2021/06/12 14:24:48;;;;;;;5.0;2.4;;;;;;;26.2;32.2;101970;;;;
2021/06/12 14:26:51;;;;;;;5.0;2.4;;;;;;;26.4;32.2;101970;;;;
2021/06/12 14:28:50;;;;;;;5.0;2.4;;;;;;;26.9;31.1;101970;;;;
2021/06/12 14:30:48;;;;;;;5.0;2.4;;;;;;;26.8;31.5;101970;;;;
2021/06/12 14:32:48;;;;;;;5.4;4.0;;;;;;;26.7;31.2;101970;;;;
2021/06/12 14:36:48;;;;;;;5.4;4.0;;;;;;;27.0;32.5;101970;;;;
2021/06/12 14:38:48;;;;;;;5.4;4.0;;;;;;;27.3;30.6;101980;;;;
2021/06/12 14:42:48;;;;;;;5.4;4.0;;;;;;;27.4;29.6;101980;;;;
2021/06/12 14:44:49;;;;;;;5.4;4.0;;;;;;;27.2;30.4;101990;;;;
2021/06/12 14:46:48;;;;;;;5.4;4.0;;;;;;;26.9;28.6;102000;;;;
2021/06/12 14:48:48;;;;;;;5.4;4.0;;;;;;;27.0;28.8;102000;;;;
2021/06/12 14:50:48;;;;;;;5.4;4.0;;;;;;;26.6;29.0;101990;;;;
2021/06/12 14:52:48;;;;;;;4.4;2.0;;;;;;;27.2;29.2;101990;;;;
2021/06/12 14:54:48;;;;;;;4.4;2.0;;;;;;;27.3;29.5;102000;;;;
2021/06/12 14:56:48;;;;;;;4.4;2.0;;;;;;;27.9;29.2;102000;;;;
2021/06/12 14:58:48;;;;;;;4.4;2.0;;;;;;;27.7;28.8;102010;;;;
2021/06/12 15:02:49;;;;;;;4.4;2.0;;;;;;;27.2;28.9;102010;;;;
2021/06/12 15:04:48;;;;;;;4.4;2.0;;;;;;;27.4;29.0;102010;;;;
2021/06/12 15:08:48;;;;;;;4.4;2.0;;;;;;;27.0;28.7;102010;;;;
2021/06/12 15:10:48;;;;;;;4.4;2.0;;;;;;;27.5;29.2;102010;;;;
2021/06/12 15:12:48;;;;;;;3.7;1.7;;;;;;;27.2;28.7;102020;;;;
2021/06/12 15:16:48;;;;;;;3.7;1.7;;;;;;;26.8;29.3;102010;;;;
2021/06/12 15:20:48;;;;;;;3.7;1.7;;;;;;;26.6;29.7;102020;;;;
2021/06/12 15:22:48;;;;;;;3.7;1.7;;;;;;;26.9;29.7;102020;;;;
2021/06/12 15:24:49;;;;;;;3.7;1.7;;;;;;;27.1;29.9;102020;;;;
2021/06/12 15:28:48;;;;;;;3.7;1.7;;;;;;;27.2;28.5;102030;;;;
2021/06/12 15:30:48;;;;;;;3.7;1.7;;;;;;;26.9;28.2;102020;;;;
2021/06/12 15:32:48;;;;;;;7.4;5.5;;;;;;;26.7;28.6;102030;;;;
2021/06/12 15:34:48;;;;;;;7.4;5.5;;;;;;;26.3;29.4;102030;;;;
2021/06/12 15:36:48;;;;;;;7.4;5.5;;;;;;;26.4;29.1;102040;;;;
2021/06/12 15:38:48;;;;;;;7.4;5.5;;;;;;;26.7;29.8;102040;;;;
2021/06/12 15:40:48;;;;;;;7.4;5.5;;;;;;;26.8;29.5;102040;;;;
2021/06/12 15:42:48;;;;;;;7.4;5.5;;;;;;;26.6;29.2;102030;;;;
2021/06/12 15:44:48;;;;;;;7.4;5.5;;;;;;;27.0;29.2;102030;;;;
2021/06/12 15:48:49;;;;;;;7.4;5.5;;;;;;;26.6;28.8;102040;;;;
2021/06/12 15:52:48;;;;;;;6.9;3.1;;;;;;;26.5;29.3;102040;;;;
2021/06/12 15:54:48;;;;;;;6.9;3.1;;;;;;;26.7;29.5;102040;;;;
2021/06/12 15:56:48;;;;;;;6.9;3.1;;;;;;;26.2;29.7;102040;;;;
2021/06/12 15:58:48;;;;;;;6.9;3.1;;;;;;;26.1;29.7;102040;;;;
2021/06/12 16:00:48;;;;;;;6.9;3.1;;;;;;;26.0;29.9;102040;;;;
2021/06/12 16:02:48;;;;;;;6.9;3.1;;;;;;;25.8;30.0;102060;;;;
2021/06/12 16:04:48;;;;;;;6.9;3.1;;;;;;;25.6;30.6;102050;;;;
2021/06/12 16:06:48;;;;;;;6.9;3.1;;;;;;;25.7;30.5;102050;;;;
2021/06/12 16:08:48;;;;;;;6.9;3.1;;;;;;;25.9;30.8;102060;;;;
2021/06/12 16:10:48;;;;;;;6.9;3.1;;;;;;;26.0;30.3;102050;;;;
2021/06/12 16:12:49;;;;;;;4.2;1.9;;;;;;;25.3;30.6;102060;;;;
2021/06/12 16:14:48;;;;;;;4.2;1.9;;;;;;;25.4;30.8;102060;;;;
2021/06/12 16:18:48;;;;;;;4.2;1.9;;;;;;;25.7;30.7;102060;;;;
2021/06/12 16:20:48;;;;;;;4.2;1.9;;;;;;;26.0;30.1;102050;;;;
2021/06/12 16:22:49;;;;;;;4.2;1.9;;;;;;;26.2;30.4;102060;;;;
2021/06/12 16:24:48;;;;;;;4.2;1.9;;;;;;;26.6;29.6;102060;;;;
2021/06/12 16:28:48;;;;;;;4.2;1.9;;;;;;;26.8;28.9;102060;;;;
2021/06/12 16:30:48;;;;;;;4.2;1.9;;;;;;;27.0;28.8;102070;;;;
2021/06/12 16:32:48;;;;;;;5.6;1.8;;;;;;;26.8;28.7;102070;;;;
2021/06/12 16:34:48;;;;;;;5.6;1.8;;;;;;;26.9;29.0;102070;;;;
2021/06/12 16:38:50;;;;;;;5.6;1.8;;;;;;;27.1;28.7;102070;;;;
2021/06/12 16:40:48;;;;;;;5.6;1.8;;;;;;;27.5;28.4;102080;;;;
2021/06/12 16:42:48;;;;;;;5.6;1.8;;;;;;;27.9;28.3;102070;;;;
2021/06/12 16:44:48;;;;;;;5.6;1.8;;;;;;;28.0;27.5;102080;;;;
2021/06/12 16:46:48;;;;;;;5.6;1.8;;;;;;;28.3;27.8;102080;;;;
2021/06/12 16:48:48;;;;;;;5.6;1.8;;;;;;;27.9;27.7;102080;;;;
2021/06/12 16:52:48;;;;;;;4.3;1.8;;;;;;;27.5;27.7;102100;;;;
2021/06/12 16:58:49;;;;;;;4.3;1.8;;;;;;;26.8;29.3;102090;;;;
2021/06/12 17:02:48;;;;;;;4.3;1.8;;;;;;;26.6;29.1;102100;;;;
2021/06/12 17:04:50;;;;;;;4.3;1.8;;;;;;;26.5;29.8;102090;;;;
2021/06/12 17:06:48;;;;;;;4.3;1.8;;;;;;;26.9;29.4;102110;;;;
2021/06/12 17:08:48;;;;;;;4.3;1.8;;;;;;;27.0;29.2;102100;;;;
2021/06/12 17:10:48;;;;;;;4.3;1.8;;;;;;;27.2;28.9;102110;;;;
2021/06/12 17:12:52;;;;;;;5.3;2.9;;;;;;;27.5;28.7;102100;;;;
2021/06/12 17:14:48;;;;;;;5.3;2.9;;;;;;;26.9;29.2;102110;;;;
2021/06/12 17:16:48;;;;;;;5.3;2.9;;;;;;;27.0;28.7;102120;;;;
2021/06/12 17:18:48;;;;;;;5.3;2.9;;;;;;;27.3;29.1;102120;;;;
2021/06/12 17:20:48;;;;;;;5.3;2.9;;;;;;;27.1;29.3;102120;;;;
2021/06/12 17:22:48;;;;;;;5.3;2.9;;;;;;;27.2;29.5;102120;;;;
2021/06/12 17:24:48;;;;;;;5.3;2.9;;;;;;;27.3;28.5;102120;;;;
2021/06/12 17:26:48;;;;;;;5.3;2.9;;;;;;;27.4;29.1;102120;;;;
2021/06/12 17:28:48;;;;;;;5.3;2.9;;;;;;;26.5;29.5;102120;;;;
2021/06/12 17:30:51;;;;;;;5.3;2.9;;;;;;;26.3;30.6;102130;;;;
2021/06/12 17:32:48;;;;;;;6.6;2.5;;;;;;;26.4;29.8;102130;;;;
2021/06/12 17:36:49;;;;;;;6.6;2.5;;;;;;;26.6;30.0;102130;;;;
2021/06/12 17:38:48;;;;;;;6.6;2.5;;;;;;;26.3;29.7;102130;;;;
2021/06/12 17:40:48;;;;;;;6.6;2.5;;;;;;;26.2;30.6;102140;;;;
2021/06/12 17:42:48;;;;;;;6.6;2.5;;;;;;;26.0;30.8;102140;;;;
2021/06/12 17:44:48;;;;;;;6.6;2.5;;;;;;;25.6;31.2;102140;;;;
2021/06/12 17:46:49;;;;;;;6.6;2.5;;;;;;;25.9;31.4;102140;;;;
2021/06/12 17:48:48;;;;;;;6.6;2.5;;;;;;;26.0;30.6;102150;;;;
2021/06/12 17:50:48;;;;;;;6.6;2.5;;;;;;;25.5;31.4;102150;;;;
2021/06/12 17:52:48;;;;;;;14.6;12.5;;;;;;;25.1;31.8;102160;;;;
2021/06/12 17:54:48;;;;;;;14.6;12.5;;;;;;;25.3;31.7;102160;;;;
2021/06/12 17:56:48;;;;;;;14.6;12.5;;;;;;;25.0;32.3;102160;;;;
2021/06/12 17:58:48;;;;;;;14.6;12.5;;;;;;;24.2;33.1;102160;;;;
2021/06/12 18:00:48;;;;;;;14.6;12.5;;;;;;;24.1;33.7;102160;;;;
2021/06/12 18:02:48;;;;;;;14.6;12.5;;;;;;;23.7;34.3;102160;;;;
2021/06/12 18:04:48;;;;;;;14.6;12.5;;;;;;;23.5;33.9;102170;;;;
2021/06/12 18:06:48;;;;;;;14.6;12.5;;;;;;;23.3;35.3;102170;;;;
2021/06/12 18:08:48;;;;;;;14.6;12.5;;;;;;;23.1;35.4;102180;;;;